Terminal Aerodrome Forecast
Issued by NWS Bismarck, ND

Home | Current Version | Previous Version | Graphics & Text | Print | Product List | Glossary On
Versions: 1 2 3 4 5 6 7 8 9 10 11 12 13 14 15 16
862
FTUS43 KBIS 072332
TAFISN
TAF
KISN 072332Z 0800/0824 31027G39KT P6SM SCT090
     FM080300 31021G30KT P6SM SCT150
     FM080600 31015KT P6SM SCT200
     FM081200 30008KT P6SM BKN120=

USA.gov is the U.S. government's official web portal to all federal, state and local government web resources and services.